sensor_id;sensor_type;location;lat;lon;timestamp;temperature;humidity
36716;DHT22;22699;51.034;3.730;2023-07-28T00:00:24;18.50;99.90
36716;DHT22;22699;51.034;3.730;2023-07-28T00:02:50;18.70;99.90
36716;DHT22;22699;51.034;3.730;2023-07-28T00:05:18;18.50;99.90
36716;DHT22;22699;51.034;3.730;2023-07-28T00:07:45;18.50;99.90
36716;DHT22;22699;51.034;3.730;2023-07-28T00:10:10;18.50;99.90
36716;DHT22;22699;51.034;3.730;2023-07-28T00:12:51;18.50;99.90
36716;DHT22;22699;51.034;3.730;2023-07-28T00:35:13;18.80;99.90
36716;DHT22;22699;51.034;3.730;2023-07-28T00:37:44;18.80;99.90
36716;DHT22;22699;51.034;3.730;2023-07-28T00:40:10;18.90;99.90
36716;DHT22;22699;51.034;3.730;2023-07-28T00:42:37;18.80;99.90
36716;DHT22;22699;51.034;3.730;2023-07-28T00:45:02;18.70;99.90
36716;DHT22;22699;51.034;3.730;2023-07-28T00:47:28;18.60;99.90
36716;DHT22;22699;51.034;3.730;2023-07-28T00:49:54;18.70;99.90
36716;DHT22;22699;51.034;3.730;2023-07-28T00:52:19;18.60;99.90
36716;DHT22;22699;51.034;3.730;2023-07-28T00:54:45;18.60;99.90
36716;DHT22;22699;51.034;3.730;2023-07-28T00:57:11;18.70;99.90
36716;DHT22;22699;51.034;3.730;2023-07-28T00:59:37;18.80;99.90
36716;DHT22;22699;51.034;3.730;2023-07-28T01:02:03;18.80;99.90
36716;DHT22;22699;51.034;3.730;2023-07-28T01:04:29;18.70;99.90
36716;DHT22;22699;51.034;3.730;2023-07-28T01:07:07;19.00;99.90
36716;DHT22;22699;51.034;3.730;2023-07-28T01:09:52;18.90;99.90
36716;DHT22;22699;51.034;3.730;2023-07-28T01:12:23;18.90;99.90
36716;DHT22;22699;51.034;3.730;2023-07-28T01:14:49;19.00;99.90
36716;DHT22;22699;51.034;3.730;2023-07-28T01:17:15;19.00;99.90
36716;DHT22;22699;51.034;3.730;2023-07-28T01:19:41;19.00;99.90
36716;DHT22;22699;51.034;3.730;2023-07-28T01:25:24;18.80;99.90
36716;DHT22;22699;51.034;3.730;2023-07-28T01:27:52;18.90;99.90
36716;DHT22;22699;51.034;3.730;2023-07-28T01:30:19;18.80;99.90
36716;DHT22;22699;51.034;3.730;2023-07-28T01:32:47;18.80;99.90
36716;DHT22;22699;51.034;3.730;2023-07-28T01:35:12;19.00;99.90
36716;DHT22;22699;51.034;3.730;2023-07-28T01:37:38;18.90;99.90
36716;DHT22;22699;51.034;3.730;2023-07-28T01:40:04;19.00;99.90
36716;DHT22;22699;51.034;3.730;2023-07-28T01:42:30;18.90;99.90
36716;DHT22;22699;51.034;3.730;2023-07-28T01:44:56;19.00;99.90
36716;DHT22;22699;51.034;3.730;2023-07-28T01:47:21;19.10;99.90
36716;DHT22;22699;51.034;3.730;2023-07-28T01:49:47;18.90;99.90
36716;DHT22;22699;51.034;3.730;2023-07-28T01:52:13;18.80;99.90
36716;DHT22;22699;51.034;3.730;2023-07-28T01:54:38;18.70;99.90
36716;DHT22;22699;51.034;3.730;2023-07-28T01:57:04;18.70;99.90
36716;DHT22;22699;51.034;3.730;2023-07-28T01:59:30;18.60;99.90
36716;DHT22;22699;51.034;3.730;2023-07-28T02:01:55;18.70;99.90
36716;DHT22;22699;51.034;3.730;2023-07-28T02:04:21;18.80;99.90
36716;DHT22;22699;51.034;3.730;2023-07-28T02:06:47;18.80;99.90
36716;DHT22;22699;51.034;3.730;2023-07-28T02:09:12;18.90;99.90
36716;DHT22;22699;51.034;3.730;2023-07-28T02:11:38;18.90;99.90
36716;DHT22;22699;51.034;3.730;2023-07-28T02:14:04;18.90;99.90
36716;DHT22;22699;51.034;3.730;2023-07-28T02:16:29;19.00;99.90
36716;DHT22;22699;51.034;3.730;2023-07-28T02:18:56;19.20;99.90
36716;DHT22;22699;51.034;3.730;2023-07-28T02:21:21;19.00;99.90
36716;DHT22;22699;51.034;3.730;2023-07-28T02:23:48;18.90;99.90
36716;DHT22;22699;51.034;3.730;2023-07-28T02:26:13;18.90;99.90
36716;DHT22;22699;51.034;3.730;2023-07-28T02:28:39;18.90;99.90
36716;DHT22;22699;51.034;3.730;2023-07-28T02:31:05;18.90;99.90
36716;DHT22;22699;51.034;3.730;2023-07-28T02:33:34;19.00;99.90
36716;DHT22;22699;51.034;3.730;2023-07-28T02:36:05;19.00;99.90
36716;DHT22;22699;51.034;3.730;2023-07-28T02:38:31;19.00;99.90
36716;DHT22;22699;51.034;3.730;2023-07-28T02:40:57;19.00;99.90
36716;DHT22;22699;51.034;3.730;2023-07-28T02:43:24;19.00;99.90
36716;DHT22;22699;51.034;3.730;2023-07-28T02:46:02;19.20;99.90
36716;DHT22;22699;51.034;3.730;2023-07-28T02:48:28;19.20;99.90
36716;DHT22;22699;51.034;3.730;2023-07-28T02:50:53;19.20;99.90
36716;DHT22;22699;51.034;3.730;2023-07-28T02:53:20;19.20;99.90
36716;DHT22;22699;51.034;3.730;2023-07-28T02:55:52;19.20;99.90
36716;DHT22;22699;51.034;3.730;2023-07-28T02:58:24;19.30;99.90
36716;DHT22;22699;51.034;3.730;2023-07-28T03:00:51;19.30;99.90
36716;DHT22;22699;51.034;3.730;2023-07-28T03:03:20;19.40;99.90
36716;DHT22;22699;51.034;3.730;2023-07-28T03:05:51;19.40;99.90
36716;DHT22;22699;51.034;3.730;2023-07-28T03:08:21;19.30;99.90
36716;DHT22;22699;51.034;3.730;2023-07-28T03:10:48;19.30;99.90
36716;DHT22;22699;51.034;3.730;2023-07-28T03:13:15;19.20;99.90
36716;DHT22;22699;51.034;3.730;2023-07-28T03:15:41;19.20;99.90
36716;DHT22;22699;51.034;3.730;2023-07-28T03:18:06;19.30;99.90
36716;DHT22;22699;51.034;3.730;2023-07-28T03:20:32;19.20;99.90
36716;DHT22;22699;51.034;3.730;2023-07-28T03:23:01;19.20;99.90
36716;DHT22;22699;51.034;3.730;2023-07-28T03:25:26;19.20;99.90
36716;DHT22;22699;51.034;3.730;2023-07-28T03:27:55;19.30;99.90
36716;DHT22;22699;51.034;3.730;2023-07-28T03:30:23;19.30;99.90
36716;DHT22;22699;51.034;3.730;2023-07-28T03:32:50;19.50;99.90
36716;DHT22;22699;51.034;3.730;2023-07-28T03:35:16;19.40;99.90
36716;DHT22;22699;51.034;3.730;2023-07-28T03:37:42;19.30;99.90
36716;DHT22;22699;51.034;3.730;2023-07-28T03:40:07;19.30;99.90
36716;DHT22;22699;51.034;3.730;2023-07-28T03:42:34;19.30;99.90
36716;DHT22;22699;51.034;3.730;2023-07-28T03:45:00;19.30;99.90
36716;DHT22;22699;51.034;3.730;2023-07-28T03:47:28;19.20;99.90
36716;DHT22;22699;51.034;3.730;2023-07-28T03:49:56;19.30;99.90
36716;DHT22;22699;51.034;3.730;2023-07-28T03:52:25;19.10;99.90
36716;DHT22;22699;51.034;3.730;2023-07-28T03:54:51;19.20;99.90
36716;DHT22;22699;51.034;3.730;2023-07-28T03:57:19;19.10;99.90
36716;DHT22;22699;51.034;3.730;2023-07-28T03:59:45;19.30;99.90
36716;DHT22;22699;51.034;3.730;2023-07-28T04:02:10;19.20;99.90
36716;DHT22;22699;51.034;3.730;2023-07-28T04:04:36;19.20;99.90
36716;DHT22;22699;51.034;3.730;2023-07-28T04:07:02;19.20;99.90
36716;DHT22;22699;51.034;3.730;2023-07-28T04:09:27;19.10;99.90
36716;DHT22;22699;51.034;3.730;2023-07-28T04:11:53;19.00;99.90
36716;DHT22;22699;51.034;3.730;2023-07-28T04:14:19;19.10;99.90
36716;DHT22;22699;51.034;3.730;2023-07-28T04:16:44;19.40;99.90
36716;DHT22;22699;51.034;3.730;2023-07-28T04:19:10;19.60;99.90
36716;DHT22;22699;51.034;3.730;2023-07-28T04:21:36;19.60;99.90
36716;DHT22;22699;51.034;3.730;2023-07-28T04:24:06;19.70;99.90
36716;DHT22;22699;51.034;3.730;2023-07-28T04:26:32;19.60;99.90
36716;DHT22;22699;51.034;3.730;2023-07-28T04:28:57;19.60;99.90
36716;DHT22;22699;51.034;3.730;2023-07-28T04:31:23;19.50;99.90
36716;DHT22;22699;51.034;3.730;2023-07-28T04:33:50;19.60;99.90
36716;DHT22;22699;51.034;3.730;2023-07-28T04:36:16;19.50;99.90
36716;DHT22;22699;51.034;3.730;2023-07-28T04:38:42;19.20;99.90
36716;DHT22;22699;51.034;3.730;2023-07-28T04:41:08;19.10;99.90
36716;DHT22;22699;51.034;3.730;2023-07-28T04:43:33;19.30;99.90
36716;DHT22;22699;51.034;3.730;2023-07-28T04:45:59;19.40;99.90
36716;DHT22;22699;51.034;3.730;2023-07-28T04:48:25;19.40;99.90
36716;DHT22;22699;51.034;3.730;2023-07-28T04:50:50;19.40;99.90
36716;DHT22;22699;51.034;3.730;2023-07-28T04:53:16;19.40;99.90
36716;DHT22;22699;51.034;3.730;2023-07-28T04:55:41;19.50;99.90
36716;DHT22;22699;51.034;3.730;2023-07-28T04:58:08;19.60;99.90
36716;DHT22;22699;51.034;3.730;2023-07-28T05:00:34;19.60;99.90
36716;DHT22;22699;51.034;3.730;2023-07-28T05:03:02;19.60;99.90
36716;DHT22;22699;51.034;3.730;2023-07-28T05:05:29;19.50;99.90
36716;DHT22;22699;51.034;3.730;2023-07-28T05:07:55;19.40;99.90
36716;DHT22;22699;51.034;3.730;2023-07-28T05:10:21;19.50;99.90
36716;DHT22;22699;51.034;3.730;2023-07-28T05:12:46;19.30;99.90
36716;DHT22;22699;51.034;3.730;2023-07-28T05:15:14;19.30;99.90
36716;DHT22;22699;51.034;3.730;2023-07-28T05:17:40;19.30;99.90
36716;DHT22;22699;51.034;3.730;2023-07-28T05:20:06;19.30;99.90
36716;DHT22;22699;51.034;3.730;2023-07-28T05:22:32;19.20;99.90
36716;DHT22;22699;51.034;3.730;2023-07-28T05:24:57;19.20;99.90
36716;DHT22;22699;51.034;3.730;2023-07-28T05:27:23;19.30;99.90
36716;DHT22;22699;51.034;3.730;2023-07-28T05:29:48;19.20;99.90
36716;DHT22;22699;51.034;3.730;2023-07-28T05:32:14;19.30;99.90
36716;DHT22;22699;51.034;3.730;2023-07-28T05:34:43;19.30;99.90
36716;DHT22;22699;51.034;3.730;2023-07-28T05:37:09;19.30;99.90
36716;DHT22;22699;51.034;3.730;2023-07-28T05:39:35;19.10;99.90
36716;DHT22;22699;51.034;3.730;2023-07-28T05:42:01;19.30;99.90
36716;DHT22;22699;51.034;3.730;2023-07-28T05:44:27;19.40;99.90
36716;DHT22;22699;51.034;3.730;2023-07-28T05:46:53;19.30;99.90
36716;DHT22;22699;51.034;3.730;2023-07-28T05:49:18;19.40;99.90
36716;DHT22;22699;51.034;3.730;2023-07-28T05:51:44;19.70;99.90
36716;DHT22;22699;51.034;3.730;2023-07-28T05:54:10;19.70;99.90
36716;DHT22;22699;51.034;3.730;2023-07-28T05:56:36;19.90;99.90
36716;DHT22;22699;51.034;3.730;2023-07-28T05:59:02;20.00;99.90
36716;DHT22;22699;51.034;3.730;2023-07-28T06:01:28;20.10;99.90
36716;DHT22;22699;51.034;3.730;2023-07-28T06:03:57;20.20;99.90
36716;DHT22;22699;51.034;3.730;2023-07-28T06:06:25;20.20;99.90
36716;DHT22;22699;51.034;3.730;2023-07-28T06:08:51;20.10;99.90
36716;DHT22;22699;51.034;3.730;2023-07-28T06:11:20;20.30;99.90
36716;DHT22;22699;51.034;3.730;2023-07-28T06:13:46;20.30;99.90
36716;DHT22;22699;51.034;3.730;2023-07-28T06:16:15;20.20;99.90
36716;DHT22;22699;51.034;3.730;2023-07-28T06:18:41;20.40;99.90
36716;DHT22;22699;51.034;3.730;2023-07-28T06:21:07;20.40;99.90
36716;DHT22;22699;51.034;3.730;2023-07-28T06:23:33;20.50;99.90
36716;DHT22;22699;51.034;3.730;2023-07-28T06:25:59;20.40;99.90
36716;DHT22;22699;51.034;3.730;2023-07-28T06:28:24;20.50;99.90
36716;DHT22;22699;51.034;3.730;2023-07-28T06:30:54;20.30;99.90
36716;DHT22;22699;51.034;3.730;2023-07-28T06:33:21;20.30;99.90
36716;DHT22;22699;51.034;3.730;2023-07-28T06:35:46;20.50;99.90
36716;DHT22;22699;51.034;3.730;2023-07-28T06:38:12;20.50;99.90
36716;DHT22;22699;51.034;3.730;2023-07-28T06:40:38;20.60;99.90
36716;DHT22;22699;51.034;3.730;2023-07-28T06:43:04;20.40;99.90
36716;DHT22;22699;51.034;3.730;2023-07-28T06:45:29;20.20;99.90
36716;DHT22;22699;51.034;3.730;2023-07-28T06:47:55;20.10;99.90
36716;DHT22;22699;51.034;3.730;2023-07-28T06:50:20;20.10;99.90
36716;DHT22;22699;51.034;3.730;2023-07-28T06:52:46;20.20;99.90
36716;DHT22;22699;51.034;3.730;2023-07-28T06:55:14;20.10;99.90
36716;DHT22;22699;51.034;3.730;2023-07-28T06:57:46;20.00;99.90
36716;DHT22;22699;51.034;3.730;2023-07-28T07:00:14;20.10;99.90
36716;DHT22;22699;51.034;3.730;2023-07-28T07:02:41;20.30;99.90
36716;DHT22;22699;51.034;3.730;2023-07-28T07:05:07;20.50;99.90
36716;DHT22;22699;51.034;3.730;2023-07-28T07:07:33;20.60;99.90
36716;DHT22;22699;51.034;3.730;2023-07-28T07:09:58;21.00;99.90
36716;DHT22;22699;51.034;3.730;2023-07-28T07:12:30;21.00;99.90
36716;DHT22;22699;51.034;3.730;2023-07-28T07:14:56;20.90;99.90
36716;DHT22;22699;51.034;3.730;2023-07-28T07:17:21;20.90;99.90
36716;DHT22;22699;51.034;3.730;2023-07-28T07:19:47;21.10;99.90
36716;DHT22;22699;51.034;3.730;2023-07-28T07:22:13;21.20;99.90
36716;DHT22;22699;51.034;3.730;2023-07-28T07:24:38;21.60;99.90
36716;DHT22;22699;51.034;3.730;2023-07-28T07:27:04;21.80;99.90
36716;DHT22;22699;51.034;3.730;2023-07-28T07:29:30;21.90;99.90
36716;DHT22;22699;51.034;3.730;2023-07-28T07:31:56;22.20;99.90
36716;DHT22;22699;51.034;3.730;2023-07-28T07:34:22;22.50;99.90
36716;DHT22;22699;51.034;3.730;2023-07-28T07:36:49;22.80;99.90
36716;DHT22;22699;51.034;3.730;2023-07-28T07:39:14;23.10;99.90
36716;DHT22;22699;51.034;3.730;2023-07-28T07:41:40;23.20;99.90
36716;DHT22;22699;51.034;3.730;2023-07-28T07:44:07;23.40;99.90
36716;DHT22;22699;51.034;3.730;2023-07-28T07:46:32;23.30;99.90
36716;DHT22;22699;51.034;3.730;2023-07-28T07:48:58;22.60;99.90
36716;DHT22;22699;51.034;3.730;2023-07-28T07:51:25;22.50;99.90
36716;DHT22;22699;51.034;3.730;2023-07-28T07:53:52;22.30;99.90
36716;DHT22;22699;51.034;3.730;2023-07-28T07:56:20;22.40;99.90
36716;DHT22;22699;51.034;3.730;2023-07-28T07:58:46;22.20;99.90
36716;DHT22;22699;51.034;3.730;2023-07-28T08:01:11;22.10;99.90
36716;DHT22;22699;51.034;3.730;2023-07-28T08:03:39;22.10;99.90
36716;DHT22;22699;51.034;3.730;2023-07-28T08:06:05;22.30;99.90
36716;DHT22;22699;51.034;3.730;2023-07-28T08:08:31;22.80;99.90
36716;DHT22;22699;51.034;3.730;2023-07-28T08:10:56;23.50;99.90
36716;DHT22;22699;51.034;3.730;2023-07-28T08:13:22;24.20;99.90
36716;DHT22;22699;51.034;3.730;2023-07-28T08:15:48;24.60;99.90
36716;DHT22;22699;51.034;3.730;2023-07-28T08:18:14;25.50;99.90
36716;DHT22;22699;51.034;3.730;2023-07-28T08:20:40;25.60;99.90
36716;DHT22;22699;51.034;3.730;2023-07-28T08:23:06;25.60;99.90
36716;DHT22;22699;51.034;3.730;2023-07-28T08:25:34;25.20;99.90
36716;DHT22;22699;51.034;3.730;2023-07-28T08:28:00;24.70;99.90
36716;DHT22;22699;51.034;3.730;2023-07-28T08:30:26;24.10;99.90
36716;DHT22;22699;51.034;3.730;2023-07-28T08:32:52;23.70;99.90
36716;DHT22;22699;51.034;3.730;2023-07-28T08:35:20;23.00;99.90
36716;DHT22;22699;51.034;3.730;2023-07-28T08:37:46;22.50;99.90
36716;DHT22;22699;51.034;3.730;2023-07-28T08:40:12;22.30;99.90
36716;DHT22;22699;51.034;3.730;2023-07-28T08:42:44;22.50;99.90
36716;DHT22;22699;51.034;3.730;2023-07-28T08:45:10;22.90;99.90
36716;DHT22;22699;51.034;3.730;2023-07-28T08:47:37;23.00;99.90
36716;DHT22;22699;51.034;3.730;2023-07-28T08:50:03;22.70;99.90
36716;DHT22;22699;51.034;3.730;2023-07-28T08:52:30;22.40;99.90
36716;DHT22;22699;51.034;3.730;2023-07-28T08:54:59;22.20;99.90
36716;DHT22;22699;51.034;3.730;2023-07-28T08:57:24;22.10;99.90
36716;DHT22;22699;51.034;3.730;2023-07-28T08:59:51;22.00;99.90
36716;DHT22;22699;51.034;3.730;2023-07-28T09:02:19;22.30;99.90
36716;DHT22;22699;51.034;3.730;2023-07-28T09:04:47;22.40;99.90
36716;DHT22;22699;51.034;3.730;2023-07-28T09:07:13;22.60;99.90
36716;DHT22;22699;51.034;3.730;2023-07-28T09:09:40;22.30;99.90
36716;DHT22;22699;51.034;3.730;2023-07-28T09:12:06;22.00;99.90
36716;DHT22;22699;51.034;3.730;2023-07-28T09:14:35;22.10;99.90
36716;DHT22;22699;51.034;3.730;2023-07-28T09:17:20;22.00;99.90
36716;DHT22;22699;51.034;3.730;2023-07-28T09:19:54;22.00;99.90
36716;DHT22;22699;51.034;3.730;2023-07-28T09:22:21;22.20;99.90
36716;DHT22;22699;51.034;3.730;2023-07-28T09:24:47;22.40;99.90
36716;DHT22;22699;51.034;3.730;2023-07-28T09:27:25;22.80;99.90
36716;DHT22;22699;51.034;3.730;2023-07-28T09:29:54;22.90;99.90
36716;DHT22;22699;51.034;3.730;2023-07-28T09:32:32;22.80;99.90
36716;DHT22;22699;51.034;3.730;2023-07-28T09:37:37;23.10;99.90
36716;DHT22;22699;51.034;3.730;2023-07-28T09:40:09;22.90;99.90
36716;DHT22;22699;51.034;3.730;2023-07-28T09:42:45;22.70;99.90
36716;DHT22;22699;51.034;3.730;2023-07-28T09:45:15;22.60;99.90
36716;DHT22;22699;51.034;3.730;2023-07-28T09:47:44;22.50;99.90
36716;DHT22;22699;51.034;3.730;2023-07-28T09:50:10;22.40;99.90
36716;DHT22;22699;51.034;3.730;2023-07-28T09:52:50;22.10;99.90
36716;DHT22;22699;51.034;3.730;2023-07-28T09:55:18;22.20;99.90
36716;DHT22;22699;51.034;3.730;2023-07-28T09:57:46;22.10;99.90
36716;DHT22;22699;51.034;3.730;2023-07-28T10:00:14;22.40;99.90
36716;DHT22;22699;51.034;3.730;2023-07-28T10:02:40;22.80;99.90
36716;DHT22;22699;51.034;3.730;2023-07-28T10:05:07;23.10;99.90
36716;DHT22;22699;51.034;3.730;2023-07-28T10:07:35;23.00;99.90
36716;DHT22;22699;51.034;3.730;2023-07-28T10:10:04;23.00;99.90
36716;DHT22;22699;51.034;3.730;2023-07-28T10:12:42;22.70;99.90
36716;DHT22;22699;51.034;3.730;2023-07-28T10:15:15;22.40;99.90
36716;DHT22;22699;51.034;3.730;2023-07-28T10:17:50;22.30;99.90
36716;DHT22;22699;51.034;3.730;2023-07-28T10:20:37;22.80;99.90
36716;DHT22;22699;51.034;3.730;2023-07-28T10:23:22;23.70;99.90
36716;DHT22;22699;51.034;3.730;2023-07-28T10:25:57;24.30;99.90
36716;DHT22;22699;51.034;3.730;2023-07-28T10:28:33;24.30;99.90
36716;DHT22;22699;51.034;3.730;2023-07-28T10:31:01;24.20;99.90
36716;DHT22;22699;51.034;3.730;2023-07-28T10:33:30;24.40;99.90
36716;DHT22;22699;51.034;3.730;2023-07-28T10:36:10;24.70;99.90
36716;DHT22;22699;51.034;3.730;2023-07-28T10:38:36;24.70;99.90
36716;DHT22;22699;51.034;3.730;2023-07-28T10:41:17;24.70;99.90
36716;DHT22;22699;51.034;3.730;2023-07-28T10:43:43;24.50;99.90
36716;DHT22;22699;51.034;3.730;2023-07-28T10:46:11;24.20;99.90
36716;DHT22;22699;51.034;3.730;2023-07-28T10:48:44;24.10;99.90
36716;DHT22;22699;51.034;3.730;2023-07-28T10:51:10;24.10;99.90
36716;DHT22;22699;51.034;3.730;2023-07-28T10:53:39;24.20;99.90
36716;DHT22;22699;51.034;3.730;2023-07-28T10:56:05;24.20;99.90
36716;DHT22;22699;51.034;3.730;2023-07-28T10:58:34;24.00;99.90
36716;DHT22;22699;51.034;3.730;2023-07-28T11:01:01;23.80;99.90
36716;DHT22;22699;51.034;3.730;2023-07-28T11:03:28;23.80;99.90
36716;DHT22;22699;51.034;3.730;2023-07-28T11:05:54;23.70;99.90
36716;DHT22;22699;51.034;3.730;2023-07-28T11:08:20;23.80;99.90
36716;DHT22;22699;51.034;3.730;2023-07-28T11:10:45;23.80;99.90
36716;DHT22;22699;51.034;3.730;2023-07-28T11:13:11;23.70;99.90
36716;DHT22;22699;51.034;3.730;2023-07-28T11:15:37;23.30;99.90
36716;DHT22;22699;51.034;3.730;2023-07-28T11:18:03;22.60;99.90
36716;DHT22;22699;51.034;3.730;2023-07-28T11:20:30;22.60;99.90
36716;DHT22;22699;51.034;3.730;2023-07-28T11:22:56;22.30;99.90
36716;DHT22;22699;51.034;3.730;2023-07-28T11:25:23;22.30;99.90
36716;DHT22;22699;51.034;3.730;2023-07-28T11:27:50;22.40;99.90
36716;DHT22;22699;51.034;3.730;2023-07-28T11:30:17;22.40;99.90
36716;DHT22;22699;51.034;3.730;2023-07-28T11:32:44;22.20;99.90
36716;DHT22;22699;51.034;3.730;2023-07-28T11:35:11;22.20;99.90
36716;DHT22;22699;51.034;3.730;2023-07-28T11:37:40;22.20;99.90
36716;DHT22;22699;51.034;3.730;2023-07-28T11:40:07;22.30;99.90
36716;DHT22;22699;51.034;3.730;2023-07-28T11:45:08;22.50;99.90
36716;DHT22;22699;51.034;3.730;2023-07-28T11:47:35;22.90;99.90
36716;DHT22;22699;51.034;3.730;2023-07-28T11:50:01;23.30;99.90
36716;DHT22;22699;51.034;3.730;2023-07-28T11:52:37;23.70;99.90
36716;DHT22;22699;51.034;3.730;2023-07-28T11:55:05;24.20;99.90
36716;DHT22;22699;51.034;3.730;2023-07-28T11:57:32;24.30;99.90
36716;DHT22;22699;51.034;3.730;2023-07-28T12:00:03;24.20;99.90
36716;DHT22;22699;51.034;3.730;2023-07-28T12:02:31;24.10;99.90
36716;DHT22;22699;51.034;3.730;2023-07-28T12:04:57;23.70;99.90
36716;DHT22;22699;51.034;3.730;2023-07-28T12:07:32;23.40;99.90
36716;DHT22;22699;51.034;3.730;2023-07-28T12:10:03;23.00;99.90
36716;DHT22;22699;51.034;3.730;2023-07-28T12:12:38;22.60;99.90
36716;DHT22;22699;51.034;3.730;2023-07-28T12:15:25;22.30;99.90
36716;DHT22;22699;51.034;3.730;2023-07-28T12:20:38;22.30;99.90
36716;DHT22;22699;51.034;3.730;2023-07-28T12:23:05;22.80;99.90
36716;DHT22;22699;51.034;3.730;2023-07-28T12:25:31;23.10;99.90
36716;DHT22;22699;51.034;3.730;2023-07-28T12:27:56;23.60;99.90
36716;DHT22;22699;51.034;3.730;2023-07-28T12:30:23;23.90;99.90
36716;DHT22;22699;51.034;3.730;2023-07-28T12:32:50;24.10;99.90
36716;DHT22;22699;51.034;3.730;2023-07-28T12:35:15;24.40;99.90
36716;DHT22;22699;51.034;3.730;2023-07-28T12:37:41;24.30;99.90
36716;DHT22;22699;51.034;3.730;2023-07-28T12:40:07;24.30;99.90
36716;DHT22;22699;51.034;3.730;2023-07-28T12:42:34;24.30;99.90
36716;DHT22;22699;51.034;3.730;2023-07-28T12:44:59;24.40;99.90
36716;DHT22;22699;51.034;3.730;2023-07-28T12:47:25;24.30;99.90
36716;DHT22;22699;51.034;3.730;2023-07-28T12:49:51;24.40;99.90
36716;DHT22;22699;51.034;3.730;2023-07-28T12:52:17;24.50;99.90
36716;DHT22;22699;51.034;3.730;2023-07-28T12:54:42;24.60;99.90
36716;DHT22;22699;51.034;3.730;2023-07-28T12:57:08;24.80;99.90
36716;DHT22;22699;51.034;3.730;2023-07-28T12:59:36;25.00;99.70
36716;DHT22;22699;51.034;3.730;2023-07-28T13:02:02;24.90;99.70
36716;DHT22;22699;51.034;3.730;2023-07-28T13:04:27;24.90;99.30
36716;DHT22;22699;51.034;3.730;2023-07-28T13:06:53;24.60;99.90
36716;DHT22;22699;51.034;3.730;2023-07-28T13:09:19;24.50;99.90
36716;DHT22;22699;51.034;3.730;2023-07-28T13:11:45;24.30;99.90
36716;DHT22;22699;51.034;3.730;2023-07-28T13:14:10;24.50;99.90
36716;DHT22;22699;51.034;3.730;2023-07-28T13:16:36;24.50;99.90
36716;DHT22;22699;51.034;3.730;2023-07-28T13:19:06;24.40;99.90
36716;DHT22;22699;51.034;3.730;2023-07-28T13:21:31;24.50;99.90
36716;DHT22;22699;51.034;3.730;2023-07-28T13:23:58;24.50;99.90
36716;DHT22;22699;51.034;3.730;2023-07-28T13:26:24;24.30;99.90
36716;DHT22;22699;51.034;3.730;2023-07-28T13:28:50;24.60;99.90
36716;DHT22;22699;51.034;3.730;2023-07-28T13:31:17;24.80;99.90
36716;DHT22;22699;51.034;3.730;2023-07-28T13:33:43;24.80;99.90
36716;DHT22;22699;51.034;3.730;2023-07-28T13:36:09;24.80;99.60
36716;DHT22;22699;51.034;3.730;2023-07-28T13:38:35;25.00;99.40
36716;DHT22;22699;51.034;3.730;2023-07-28T13:41:03;25.10;99.20
36716;DHT22;22699;51.034;3.730;2023-07-28T13:43:28;25.10;99.20
36716;DHT22;22699;51.034;3.730;2023-07-28T13:45:54;24.90;98.90
36716;DHT22;22699;51.034;3.730;2023-07-28T13:48:20;24.90;99.30
36716;DHT22;22699;51.034;3.730;2023-07-28T13:50:45;24.80;99.40
36716;DHT22;22699;51.034;3.730;2023-07-28T13:53:11;25.00;98.80
36716;DHT22;22699;51.034;3.730;2023-07-28T13:55:37;24.80;99.20
36716;DHT22;22699;51.034;3.730;2023-07-28T13:58:04;25.00;99.40
36716;DHT22;22699;51.034;3.730;2023-07-28T14:00:29;24.90;99.20
36716;DHT22;22699;51.034;3.730;2023-07-28T14:02:55;25.00;98.60
36716;DHT22;22699;51.034;3.730;2023-07-28T14:05:20;25.10;98.70
36716;DHT22;22699;51.034;3.730;2023-07-28T14:07:48;25.30;98.30
36716;DHT22;22699;51.034;3.730;2023-07-28T14:10:14;25.60;97.70
36716;DHT22;22699;51.034;3.730;2023-07-28T14:12:40;25.30;98.10
36716;DHT22;22699;51.034;3.730;2023-07-28T14:15:07;25.60;98.00
36716;DHT22;22699;51.034;3.730;2023-07-28T14:17:32;25.60;98.00
36716;DHT22;22699;51.034;3.730;2023-07-28T14:19:58;25.70;97.30
36716;DHT22;22699;51.034;3.730;2023-07-28T14:22:24;25.60;97.00
36716;DHT22;22699;51.034;3.730;2023-07-28T14:24:49;25.60;97.10
36716;DHT22;22699;51.034;3.730;2023-07-28T14:27:15;25.60;97.30
36716;DHT22;22699;51.034;3.730;2023-07-28T14:29:41;25.70;96.80
36716;DHT22;22699;51.034;3.730;2023-07-28T14:32:07;25.40;96.50
36716;DHT22;22699;51.034;3.730;2023-07-28T14:34:33;25.50;96.80
36716;DHT22;22699;51.034;3.730;2023-07-28T14:37:03;25.30;96.30
36716;DHT22;22699;51.034;3.730;2023-07-28T14:39:28;25.60;96.30
36716;DHT22;22699;51.034;3.730;2023-07-28T14:41:54;25.50;96.30
36716;DHT22;22699;51.034;3.730;2023-07-28T14:44:20;25.40;96.20
36716;DHT22;22699;51.034;3.730;2023-07-28T14:46:46;25.50;95.80
36716;DHT22;22699;51.034;3.730;2023-07-28T14:49:12;25.70;95.50
36716;DHT22;22699;51.034;3.730;2023-07-28T14:51:37;25.90;95.30
36716;DHT22;22699;51.034;3.730;2023-07-28T14:54:03;25.60;95.90
36716;DHT22;22699;51.034;3.730;2023-07-28T14:56:28;25.70;95.60
36716;DHT22;22699;51.034;3.730;2023-07-28T14:58:55;25.70;95.70
36716;DHT22;22699;51.034;3.730;2023-07-28T15:01:21;25.90;95.60
36716;DHT22;22699;51.034;3.730;2023-07-28T15:03:46;26.10;95.40
36716;DHT22;22699;51.034;3.730;2023-07-28T15:06:12;26.50;94.60
36716;DHT22;22699;51.034;3.730;2023-07-28T15:08:38;26.90;94.10
36716;DHT22;22699;51.034;3.730;2023-07-28T15:11:03;27.00;93.90
36716;DHT22;22699;51.034;3.730;2023-07-28T15:13:29;27.20;93.60
36716;DHT22;22699;51.034;3.730;2023-07-28T15:15:55;27.00;93.90
36716;DHT22;22699;51.034;3.730;2023-07-28T15:18:20;26.50;94.30
36716;DHT22;22699;51.034;3.730;2023-07-28T15:20:46;25.90;95.10
36716;DHT22;22699;51.034;3.730;2023-07-28T15:23:11;25.90;95.30
36716;DHT22;22699;51.034;3.730;2023-07-28T15:25:37;26.00;94.70
36716;DHT22;22699;51.034;3.730;2023-07-28T15:28:12;26.00;94.80
36716;DHT22;22699;51.034;3.730;2023-07-28T15:30:38;25.90;95.20
36716;DHT22;22699;51.034;3.730;2023-07-28T15:33:04;25.80;95.60
36716;DHT22;22699;51.034;3.730;2023-07-28T15:35:29;25.50;96.00
36716;DHT22;22699;51.034;3.730;2023-07-28T15:37:55;25.60;96.20
36716;DHT22;22699;51.034;3.730;2023-07-28T15:40:20;25.70;96.10
36716;DHT22;22699;51.034;3.730;2023-07-28T15:42:46;25.80;96.10
36716;DHT22;22699;51.034;3.730;2023-07-28T15:45:12;25.90;95.00
36716;DHT22;22699;51.034;3.730;2023-07-28T15:47:38;25.90;94.80
36716;DHT22;22699;51.034;3.730;2023-07-28T15:50:04;25.90;95.00
36716;DHT22;22699;51.034;3.730;2023-07-28T15:52:31;25.80;95.10
36716;DHT22;22699;51.034;3.730;2023-07-28T15:54:56;25.90;95.40
36716;DHT22;22699;51.034;3.730;2023-07-28T15:57:22;25.90;95.70
36716;DHT22;22699;51.034;3.730;2023-07-28T15:59:48;25.90;95.80